createdAt,value
2022-11-30T00:01:20.306Z,96450.75
2022-11-30T00:03:46.819Z,96455.44
2022-11-30T00:06:22.825Z,96455.63
2022-11-30T00:08:49.759Z,96456.69
2022-11-30T00:11:20.958Z,96452.72
2022-11-30T00:13:48.093Z,96459.56
2022-11-30T00:16:14.606Z,96454.59
2022-11-30T00:18:41.012Z,96459.91
2022-11-30T00:21:10.429Z,96457.41
2022-11-30T00:23:38.237Z,96459.41
2022-11-30T00:26:05.631Z,96453.38
2022-11-30T00:28:32.742Z,96458.22
2022-11-30T00:31:02.411Z,96462.09
2022-11-30T00:33:29.440Z,96456.31
2022-11-30T00:35:59.748Z,96465.31
2022-11-30T00:38:26.497Z,96466.22
2022-11-30T00:40:52.974Z,96460.44
2022-11-30T00:43:19.386Z,96461.72
2022-11-30T00:45:46.047Z,96465.25
2022-11-30T00:48:12.462Z,96461.94
2022-11-30T00:50:39.023Z,96459.56
2022-11-30T00:53:05.398Z,96471.69
2022-11-30T00:55:33.322Z,96470.03
2022-11-30T00:58:00.107Z,96463.41
2022-11-30T01:00:26.775Z,96460.13
2022-11-30T01:02:56.556Z,96464.59
2022-11-30T01:05:22.941Z,96465.50
2022-11-30T01:07:49.337Z,96465.50
2022-11-30T01:10:15.907Z,96461.63
2022-11-30T01:12:42.298Z,96464.28
2022-11-30T01:15:09.078Z,96463.59
2022-11-30T01:17:35.530Z,96462.88
2022-11-30T01:20:01.937Z,96459.34
2022-11-30T01:22:29.099Z,96455.00
2022-11-30T01:24:55.504Z,96462.78
2022-11-30T01:27:21.867Z,96468.06
2022-11-30T01:29:48.248Z,96463.91
2022-11-30T01:32:14.609Z,96468.66
2022-11-30T01:34:41.014Z,96464.72
2022-11-30T01:37:07.492Z,96470.91
2022-11-30T01:39:33.862Z,96467.84
2022-11-30T01:42:00.269Z,96466.19
2022-11-30T01:44:26.744Z,96467.00
2022-11-30T01:46:58.617Z,96463.25
2022-11-30T01:49:25.026Z,96467.84
2022-11-30T01:51:53.725Z,96471.78
2022-11-30T01:54:22.598Z,96455.53
2022-11-30T01:57:02.698Z,96460.03
2022-11-30T01:59:29.687Z,96462.06
2022-11-30T02:01:56.320Z,96461.38
2022-11-30T02:04:26.394Z,96464.16
2022-11-30T02:06:53.093Z,96463.59
2022-11-30T02:09:20.652Z,96462.97
2022-11-30T02:11:47.840Z,96468.84
2022-11-30T02:14:20.374Z,96464.38
2022-11-30T02:16:46.735Z,96478.06
2022-11-30T02:19:16.081Z,96471.22
2022-11-30T02:21:42.408Z,96478.06
2022-11-30T02:24:27.542Z,96481.78
2022-11-30T02:27:09.642Z,96482.94
2022-11-30T02:29:43.167Z,96481.38
2022-11-30T02:32:19.578Z,96481.81
2022-11-30T02:34:47.411Z,96486.16
2022-11-30T02:37:14.826Z,96477.25
2022-11-30T02:39:42.381Z,96487.41
2022-11-30T02:42:13.128Z,96491.13
2022-11-30T02:44:43.303Z,96493.94
2022-11-30T02:47:18.133Z,96493.81
2022-11-30T02:49:44.647Z,96500.56
2022-11-30T02:52:11.707Z,96503.16
2022-11-30T02:54:38.424Z,96506.66
2022-11-30T02:57:04.798Z,96499.84
2022-11-30T02:59:31.275Z,96504.78
2022-11-30T03:01:57.720Z,96506.47
2022-11-30T03:04:24.229Z,96504.16
2022-11-30T03:06:51.011Z,96508.09
2022-11-30T03:09:17.472Z,96508.44
2022-11-30T03:11:44.015Z,96510.06
2022-11-30T03:14:10.395Z,96504.41
2022-11-30T03:16:37.337Z,96517.53
2022-11-30T03:19:03.720Z,96520.88
2022-11-30T03:21:30.176Z,96520.13
2022-11-30T03:23:56.631Z,96520.34
2022-11-30T03:26:23.036Z,96523.88
2022-11-30T03:28:49.399Z,96523.97
2022-11-30T03:31:15.894Z,96520.56
2022-11-30T03:33:42.835Z,96527.38
2022-11-30T03:36:10.448Z,96536.38
2022-11-30T03:38:37.421Z,96538.13
2022-11-30T03:41:05.443Z,96533.25
2022-11-30T03:43:31.840Z,96539.56
2022-11-30T03:45:58.249Z,96533.75
2022-11-30T03:48:24.681Z,96540.16
2022-11-30T03:50:51.333Z,96536.22
2022-11-30T03:53:18.509Z,96535.50
2022-11-30T03:55:44.891Z,96539.75
2022-11-30T03:58:11.566Z,96537.16
2022-11-30T04:00:38.163Z,96541.31
2022-11-30T04:03:04.829Z,96539.84
2022-11-30T04:05:31.295Z,96543.44
2022-11-30T04:07:57.749Z,96541.13
2022-11-30T04:10:24.271Z,96537.16
2022-11-30T04:12:50.709Z,96542.72
2022-11-30T04:15:17.200Z,96545.22
2022-11-30T04:17:43.568Z,96541.19
2022-11-30T04:20:10.128Z,96542.63
2022-11-30T04:22:36.517Z,96545.00
2022-11-30T04:25:02.912Z,96542.94
2022-11-30T04:27:29.470Z,96536.78
2022-11-30T04:29:55.846Z,96536.06
2022-11-30T04:32:22.247Z,96543.41
2022-11-30T04:34:48.818Z,96539.16
2022-11-30T04:37:15.509Z,96544.84
2022-11-30T04:39:41.911Z,96539.03
2022-11-30T04:42:08.318Z,96540.59
2022-11-30T04:44:34.690Z,96543.47
2022-11-30T04:47:01.106Z,96538.88
2022-11-30T04:49:27.518Z,96537.84
2022-11-30T04:51:53.894Z,96533.81
2022-11-30T04:54:20.292Z,96531.78
2022-11-30T04:56:46.702Z,96539.56
2022-11-30T04:59:13.151Z,96548.03
2022-11-30T05:01:39.621Z,96540.38
2022-11-30T05:04:06.161Z,96541.09
2022-11-30T05:06:32.656Z,96547.63
2022-11-30T05:08:59.092Z,96538.88
2022-11-30T05:11:25.482Z,96551.84
2022-11-30T05:13:51.985Z,96547.50
2022-11-30T05:16:18.425Z,96551.00
2022-11-30T05:18:44.834Z,96543.47
2022-11-30T05:21:11.867Z,96544.19
2022-11-30T05:23:38.317Z,96551.97
2022-11-30T05:26:04.865Z,96545.34
2022-11-30T05:28:31.258Z,96554.78
2022-11-30T05:31:02.091Z,96560.69
2022-11-30T05:33:28.477Z,96545.13
2022-11-30T05:35:54.888Z,96557.16
2022-11-30T05:38:21.281Z,96554.13
2022-11-30T05:40:47.651Z,96561.22
2022-11-30T05:43:14.061Z,96565.19
2022-11-30T05:45:40.454Z,96557.63
2022-11-30T05:48:07.085Z,96557.63
2022-11-30T05:50:33.574Z,96561.44
2022-11-30T05:53:01.026Z,96557.69
2022-11-30T05:55:28.479Z,96563.16
2022-11-30T05:57:55.011Z,96566.72
2022-11-30T06:00:21.860Z,96567.94
2022-11-30T06:02:48.489Z,96561.00
2022-11-30T06:05:15.079Z,96564.38
2022-11-30T06:07:41.562Z,96562.50
2022-11-30T06:10:08.316Z,96560.41
2022-11-30T06:12:34.914Z,96575.13
2022-11-30T06:15:01.389Z,96570.78
2022-11-30T06:17:27.811Z,96573.63
2022-11-30T06:19:54.246Z,96570.91
2022-11-30T06:22:20.654Z,96569.94
2022-11-30T06:24:47.447Z,96571.63
2022-11-30T06:27:14.232Z,96564.63
2022-11-30T06:29:40.603Z,96569.28
2022-11-30T06:32:07.407Z,96575.41
2022-11-30T06:34:33.803Z,96567.03
2022-11-30T06:37:00.182Z,96573.88
2022-11-30T06:39:49.980Z,96567.03
2022-11-30T06:42:12.993Z,96574.94
2022-11-30T06:44:39.371Z,96577.63
2022-11-30T06:47:05.743Z,96577.72
2022-11-30T06:49:32.165Z,96575.97
2022-11-30T06:51:58.601Z,96579.06
2022-11-30T06:54:25.062Z,96577.63
2022-11-30T06:56:51.426Z,96582.31
2022-11-30T06:59:17.878Z,96581.13
2022-11-30T07:01:44.357Z,96587.25
2022-11-30T07:04:10.777Z,96585.13
2022-11-30T07:06:37.199Z,96576.31
2022-11-30T07:09:03.798Z,96586.34
2022-11-30T07:11:30.311Z,96589.31
2022-11-30T07:13:56.710Z,96596.44
2022-11-30T07:16:23.225Z,96587.69
2022-11-30T07:18:49.695Z,96599.28
2022-11-30T07:21:16.096Z,96598.91
2022-11-30T07:24:01.017Z,96607.41
2022-11-30T07:26:27.574Z,96599.88
2022-11-30T07:28:55.555Z,96608.56
2022-11-30T07:31:26.415Z,96605.72
2022-11-30T07:33:52.849Z,96606.34
2022-11-30T07:36:20.157Z,96606.13
2022-11-30T07:38:46.557Z,96607.28
2022-11-30T07:41:13.374Z,96605.97
2022-11-30T07:43:39.779Z,96605.38
2022-11-30T07:46:06.513Z,96603.16
2022-11-30T07:48:34.019Z,96607.66
2022-11-30T07:51:07.696Z,96601.91
2022-11-30T07:53:34.143Z,96607.22
2022-11-30T07:56:04.985Z,96600.66
2022-11-30T07:58:31.883Z,96596.16
2022-11-30T08:01:02.546Z,96600.28
2022-11-30T08:03:32.396Z,96600.16
2022-11-30T08:06:11.589Z,96600.88
2022-11-30T08:08:39.454Z,96607.28
2022-11-30T08:11:06.960Z,96601.38
2022-11-30T08:13:33.405Z,96603.25
2022-11-30T08:16:03.468Z,96608.44
2022-11-30T08:18:29.931Z,96606.75
2022-11-30T08:21:00.074Z,96602.88
2022-11-30T08:23:30.393Z,96604.44
2022-11-30T08:25:56.952Z,96608.22
2022-11-30T08:28:23.353Z,96609.75
2022-11-30T08:30:49.820Z,96614.13
2022-11-30T08:33:16.280Z,96612.47
2022-11-30T08:35:43.083Z,96608.00
2022-11-30T08:38:09.530Z,96615.53
2022-11-30T08:40:36.302Z,96619.91
2022-11-30T08:43:02.690Z,96612.00
2022-11-30T08:45:29.057Z,96624.06
2022-11-30T08:47:55.577Z,96621.34
2022-11-30T08:50:21.934Z,96618.63
2022-11-30T08:52:48.322Z,96620.28
2022-11-30T08:55:14.767Z,96621.69
2022-11-30T08:57:41.134Z,96613.66
2022-11-30T09:00:07.852Z,96619.69
2022-11-30T09:02:34.312Z,96613.53
2022-11-30T09:05:00.779Z,96609.19
2022-11-30T09:07:27.276Z,96604.47
2022-11-30T09:09:53.824Z,96609.31
2022-11-30T09:12:20.197Z,96606.59
2022-11-30T09:14:52.211Z,96606.59
2022-11-30T09:17:22.502Z,96608.50
2022-11-30T09:19:48.980Z,96604.69
2022-11-30T09:22:15.357Z,96592.22
2022-11-30T09:24:41.769Z,96595.47
2022-11-30T09:27:08.171Z,96598.56
2022-11-30T09:29:35.707Z,96595.25
2022-11-30T09:32:02.090Z,96588.63
2022-11-30T09:34:28.528Z,96591.69
2022-11-30T09:36:54.901Z,96589.56
2022-11-30T09:39:21.351Z,96585.91
2022-11-30T09:42:04.397Z,96584.56
2022-11-30T09:44:43.328Z,96585.03
2022-11-30T09:47:09.719Z,96577.94
2022-11-30T09:49:37.947Z,96578.41
2022-11-30T09:52:05.826Z,96570.34
2022-11-30T09:54:36.788Z,96575.34
2022-11-30T09:57:25.837Z,96569.63
2022-11-30T09:59:54.904Z,96562.03
2022-11-30T10:02:25.316Z,96567.00
2022-11-30T10:04:51.858Z,96570.28
2022-11-30T10:07:37.083Z,96571.69
2022-11-30T10:10:32.295Z,96555.56
2022-11-30T10:12:59.592Z,96559.34
2022-11-30T10:15:28.953Z,96555.94
2022-11-30T10:18:07.568Z,96559.34
2022-11-30T10:20:33.936Z,96556.59
2022-11-30T10:23:03.353Z,96553.38
2022-11-30T10:25:50.632Z,96547.78
2022-11-30T10:28:45.400Z,96539.50
2022-11-30T10:31:09.007Z,96540.66
2022-11-30T10:33:40.696Z,96536.69
2022-11-30T10:36:12.347Z,96536.44
2022-11-30T10:38:46.790Z,96531.69
2022-11-30T10:41:16.144Z,96529.75
2022-11-30T10:43:44.896Z,96529.13
2022-11-30T10:46:18.559Z,96526.97
2022-11-30T10:48:49.159Z,96527.25
2022-11-30T10:51:16.771Z,96520.72
2022-11-30T10:53:43.146Z,96527.31
2022-11-30T10:56:11.262Z,96518.41
2022-11-30T10:58:53.247Z,96523.91
2022-11-30T11:01:36.186Z,96517.38
2022-11-30T11:04:14.091Z,96521.09
2022-11-30T11:06:48.957Z,96518.09
2022-11-30T11:09:31.453Z,96515.78
2022-11-30T11:11:58.713Z,96519.50
2022-11-30T11:14:26.302Z,96525.16
2022-11-30T11:16:52.678Z,96518.16
2022-11-30T11:19:23.649Z,96524.22
2022-11-30T11:21:50.702Z,96520.63
2022-11-30T11:24:20.035Z,96514.34
2022-11-30T11:26:50.824Z,96520.13
2022-11-30T11:29:31.330Z,96520.66
2022-11-30T11:32:16.407Z,96504.75
2022-11-30T11:34:49.419Z,96505.88
2022-11-30T11:37:22.326Z,96508.91
2022-11-30T11:39:59.756Z,96505.31
2022-11-30T11:42:27.691Z,96512.03
2022-11-30T11:44:55.952Z,96512.72
2022-11-30T11:47:41.093Z,96518.78
2022-11-30T11:50:13.326Z,96512.03
2022-11-30T11:52:39.842Z,96514.41
2022-11-30T11:55:09.828Z,96505.88
2022-11-30T11:57:41.126Z,96507.22
2022-11-30T12:00:16.307Z,96511.38
2022-11-30T12:02:52.376Z,96516.84
2022-11-30T12:05:24.674Z,96515.19
2022-11-30T12:08:11.581Z,96512.44
2022-11-30T12:10:54.389Z,96519.06
2022-11-30T12:13:22.698Z,96515.63
2022-11-30T12:16:07.701Z,96516.59
2022-11-30T12:18:39.744Z,96512.44
2022-11-30T12:21:12.922Z,96517.25
2022-11-30T12:24:09.154Z,96521.25
2022-11-30T12:26:43.069Z,96516.03
2022-11-30T12:29:18.781Z,96521.81
2022-11-30T12:31:48.274Z,96518.78
2022-11-30T12:34:19.602Z,96517.16
2022-11-30T12:36:46.002Z,96517.00
2022-11-30T12:39:24.580Z,96518.13
2022-11-30T12:41:52.895Z,96518.38
2022-11-30T12:44:19.282Z,96517.56
2022-11-30T12:46:45.818Z,96512.47
2022-11-30T12:49:19.472Z,96520.03
2022-11-30T12:51:51.767Z,96520.03
2022-11-30T12:54:26.583Z,96514.13
2022-11-30T12:57:31.528Z,96517.44
2022-11-30T13:00:13.187Z,96513.31
2022-11-30T13:02:42.231Z,96516.34
2022-11-30T13:05:13.024Z,96513.31
2022-11-30T13:07:48.370Z,96515.38
2022-11-30T13:10:34.674Z,96519.88
2022-11-30T13:13:01.959Z,96521.56
2022-11-30T13:15:31.171Z,96515.94
2022-11-30T13:17:57.774Z,96515.94
2022-11-30T13:20:42.548Z,96514.94
2022-11-30T13:23:19.812Z,96513.03
2022-11-30T13:26:11.719Z,96515.66
2022-11-30T13:28:41.077Z,96506.44
2022-11-30T13:31:10.720Z,96512.75
2022-11-30T13:33:37.958Z,96510.00
2022-11-30T13:36:27.878Z,96508.91
2022-11-30T13:39:13.085Z,96513.31
2022-11-30T13:41:40.468Z,96516.44
2022-11-30T13:44:22.491Z,96513.16
2022-11-30T13:46:50.484Z,96511.50
2022-11-30T13:49:25.879Z,96519.34
2022-11-30T13:52:13.586Z,96517.69
2022-11-30T13:54:46.810Z,96518.13
2022-11-30T13:57:16.384Z,96524.97
2022-11-30T13:59:47.424Z,96518.38
2022-11-30T14:02:44.554Z,96521.13
2022-11-30T14:05:17.410Z,96521.13
2022-11-30T14:07:44.908Z,96518.34
2022-11-30T14:10:43.776Z,96514.63
2022-11-30T14:13:10.540Z,96521.53
2022-11-30T14:15:40.749Z,96516.31
2022-11-30T14:18:09.891Z,96521.25
2022-11-30T14:20:43.931Z,96519.63
2022-11-30T14:23:15.312Z,96525.06
2022-11-30T14:25:46.823Z,96513.00
2022-11-30T14:28:16.294Z,96518.22
2022-11-30T14:30:43.578Z,96517.94
2022-11-30T14:33:19.542Z,96523.16
2022-11-30T14:35:49.210Z,96514.63
2022-11-30T14:38:27.003Z,96520.97
2022-11-30T14:40:53.978Z,96524.00
2022-11-30T14:43:20.375Z,96517.38
2022-11-30T14:46:04.604Z,96517.38
2022-11-30T14:48:32.075Z,96522.88
2022-11-30T14:51:00.066Z,96527.38
2022-11-30T14:53:47.174Z,96526.81
2022-11-30T14:56:22.596Z,96528.75
2022-11-30T14:59:06.385Z,96528.88
2022-11-30T15:01:33.436Z,96534.38
2022-11-30T15:04:10.229Z,96534.78
2022-11-30T15:06:38.301Z,96539.28
2022-11-30T15:09:05.113Z,96541.75
2022-11-30T15:11:31.628Z,96540.78
2022-11-30T15:14:07.266Z,96539.44
2022-11-30T15:16:33.718Z,96547.25
2022-11-30T15:19:15.691Z,96539.56
2022-11-30T15:21:45.197Z,96538.03
2022-11-30T15:24:11.705Z,96536.50
2022-11-30T15:26:43.927Z,96539.50
2022-11-30T15:29:16.875Z,96546.59
2022-11-30T15:31:44.714Z,96543.56
2022-11-30T15:34:21.890Z,96541.88
2022-11-30T15:36:48.397Z,96544.41
2022-11-30T15:39:25.516Z,96536.31
2022-11-30T15:41:55.750Z,96544.91
2022-11-30T15:44:44.141Z,96547.84
2022-11-30T15:47:24.250Z,96549.66
2022-11-30T15:49:51.645Z,96552.53
2022-11-30T15:52:18.127Z,96553.13
2022-11-30T15:54:45.805Z,96551.19
2022-11-30T15:57:12.688Z,96559.31
2022-11-30T15:59:39.084Z,96547.34
2022-11-30T16:02:08.708Z,96558.88
2022-11-30T16:04:54.021Z,96559.34
2022-11-30T16:07:20.513Z,96558.66
2022-11-30T16:09:47.100Z,96561.63
2022-11-30T16:12:26.030Z,96561.06
2022-11-30T16:14:52.387Z,96561.72
2022-11-30T16:17:19.128Z,96565.81
2022-11-30T16:19:45.751Z,96558.72
2022-11-30T16:22:13.213Z,96565.88
2022-11-30T16:24:39.718Z,96570.47
2022-11-30T16:27:17.409Z,96563.97
2022-11-30T16:29:47.849Z,96563.19
2022-11-30T16:32:17.916Z,96561.31
2022-11-30T16:34:44.450Z,96559.56
2022-11-30T16:37:11.254Z,96565.13
2022-11-30T16:39:37.622Z,96570.19
2022-11-30T16:42:04.124Z,96564.41
2022-11-30T16:44:30.522Z,96569.28
2022-11-30T16:46:57.115Z,96581.59
2022-11-30T16:49:23.480Z,96579.69
2022-11-30T16:51:49.856Z,96575.59
2022-11-30T16:54:16.269Z,96580.69
2022-11-30T16:56:43.287Z,96584.44
2022-11-30T16:59:15.119Z,96574.09
2022-11-30T17:01:44.849Z,96582.59
2022-11-30T17:04:19.227Z,96577.88
2022-11-30T17:06:49.794Z,96575.75
2022-11-30T17:09:17.167Z,96581.53
2022-11-30T17:11:45.489Z,96576.13
2022-11-30T17:14:13.039Z,96583.28
2022-11-30T17:16:39.579Z,96582.94
2022-11-30T17:19:07.592Z,96582.31
2022-11-30T17:21:35.435Z,96587.72
2022-11-30T17:24:02.310Z,96584.16
2022-11-30T17:26:28.787Z,96587.22
2022-11-30T17:28:55.221Z,96588.38
2022-11-30T17:31:21.857Z,96589.56
2022-11-30T17:33:48.715Z,96589.56
2022-11-30T17:36:15.887Z,96592.88
2022-11-30T17:38:45.344Z,96590.78
2022-11-30T17:41:18.578Z,96591.09
2022-11-30T17:43:45.807Z,96595.31
2022-11-30T17:46:14.128Z,96587.06
2022-11-30T17:48:40.570Z,96595.81
2022-11-30T17:51:07.453Z,96599.13
2022-11-30T17:53:33.928Z,96594.72
2022-11-30T17:56:10.953Z,96591.31
2022-11-30T17:58:43.928Z,96597.19
2022-11-30T18:01:31.055Z,96594.50
2022-11-30T18:03:58.158Z,96596.59
2022-11-30T18:06:24.629Z,96592.94
2022-11-30T18:08:51.069Z,96591.53
2022-11-30T18:11:20.276Z,96603.56
2022-11-30T18:13:47.443Z,96599.81
2022-11-30T18:16:14.984Z,96597.56
2022-11-30T18:18:47.075Z,96596.97
2022-11-30T18:21:15.225Z,96600.50
2022-11-30T18:23:41.637Z,96599.06
2022-11-30T18:26:10.535Z,96598.88
2022-11-30T18:28:37.202Z,96603.94
2022-11-30T18:31:05.685Z,96605.00
2022-11-30T18:33:32.702Z,96594.31
2022-11-30T18:35:59.641Z,96603.28
2022-11-30T18:38:26.458Z,96602.69
2022-11-30T18:40:53.293Z,96594.47
2022-11-30T18:43:19.874Z,96605.44
2022-11-30T18:45:46.343Z,96598.25
2022-11-30T18:48:12.868Z,96604.47
2022-11-30T18:50:39.317Z,96598.78
2022-11-30T18:53:05.778Z,96598.03
2022-11-30T18:55:32.295Z,96606.97
2022-11-30T18:57:58.657Z,96607.44
2022-11-30T19:00:27.659Z,96605.97
2022-11-30T19:02:54.147Z,96606.41
2022-11-30T19:05:32.594Z,96610.69
2022-11-30T19:07:59.725Z,96619.31
2022-11-30T19:10:26.195Z,96614.69
2022-11-30T19:12:52.588Z,96616.34
2022-11-30T19:15:19.138Z,96624.59
2022-11-30T19:17:45.569Z,96618.16
2022-11-30T19:20:12.224Z,96619.72
2022-11-30T19:22:38.661Z,96621.03
2022-11-30T19:25:05.329Z,96617.50
2022-11-30T19:27:31.700Z,96610.47
2022-11-30T19:29:58.088Z,96613.53
2022-11-30T19:32:24.500Z,96614.81
2022-11-30T19:34:50.892Z,96618.13
2022-11-30T19:37:17.315Z,96625.66
2022-11-30T19:39:43.733Z,96609.34
2022-11-30T19:42:11.249Z,96614.09
2022-11-30T19:44:37.719Z,96614.81
2022-11-30T19:47:04.270Z,96612.38
2022-11-30T19:49:30.633Z,96618.16
2022-11-30T19:51:56.999Z,96616.53
2022-11-30T19:54:23.444Z,96613.53
2022-11-30T19:56:49.860Z,96617.53
2022-11-30T19:59:16.252Z,96619.03
2022-11-30T20:01:42.770Z,96620.56
2022-11-30T20:04:09.185Z,96620.44
2022-11-30T20:06:36.885Z,96624.13
2022-11-30T20:09:04.410Z,96623.63
2022-11-30T20:11:31.070Z,96616.63
2022-11-30T20:13:58.441Z,96622.66
2022-11-30T20:16:25.041Z,96625.97
2022-11-30T20:18:56.271Z,96617.44
2022-11-30T20:21:23.988Z,96625.97
2022-11-30T20:23:50.879Z,96618.00
2022-11-30T20:26:17.348Z,96611.28
2022-11-30T20:28:44.961Z,96611.97
2022-11-30T20:31:12.167Z,96614.31
2022-11-30T20:33:38.992Z,96615.03
2022-11-30T20:36:06.272Z,96610.63
2022-11-30T20:38:32.922Z,96604.34
2022-11-30T20:40:59.350Z,96608.44
2022-11-30T20:43:25.861Z,96607.50
2022-11-30T20:45:52.627Z,96606.41
2022-11-30T20:48:19.344Z,96605.47
2022-11-30T20:50:55.979Z,96602.59
2022-11-30T20:53:32.680Z,96613.72
2022-11-30T20:56:00.496Z,96613.72
2022-11-30T20:58:27.325Z,96604.91
2022-11-30T21:00:53.736Z,96604.66
2022-11-30T21:03:20.167Z,96608.78
2022-11-30T21:05:46.547Z,96607.97
2022-11-30T21:08:12.970Z,96607.97
2022-11-30T21:10:39.718Z,96604.41
2022-11-30T21:13:06.211Z,96610.28
2022-11-30T21:15:32.713Z,96615.41
2022-11-30T21:17:59.200Z,96616.22
2022-11-30T21:20:25.576Z,96614.31
2022-11-30T21:22:52.025Z,96608.94
2022-11-30T21:25:18.500Z,96609.50
2022-11-30T21:27:50.260Z,96610.22
2022-11-30T21:30:16.693Z,96600.34
2022-11-30T21:32:43.092Z,96611.59
2022-11-30T21:35:09.576Z,96604.59
2022-11-30T21:37:36.021Z,96603.78
2022-11-30T21:40:02.408Z,96603.66
2022-11-30T21:42:28.798Z,96608.88
2022-11-30T21:44:55.180Z,96612.13
2022-11-30T21:47:21.572Z,96609.44
2022-11-30T21:49:48.001Z,96613.94
2022-11-30T21:52:14.438Z,96610.38
2022-11-30T21:54:40.874Z,96602.53
2022-11-30T21:57:07.310Z,96602.25
2022-11-30T21:59:33.831Z,96608.03
2022-11-30T22:02:00.425Z,96610.66
2022-11-30T22:04:27.076Z,96608.59
2022-11-30T22:06:53.502Z,96608.34
2022-11-30T22:09:19.988Z,96614.25
2022-11-30T22:11:46.656Z,96610.00
2022-11-30T22:14:15.573Z,96618.53
2022-11-30T22:16:42.181Z,96614.94
2022-11-30T22:19:08.735Z,96604.38
2022-11-30T22:21:35.557Z,96610.28
2022-11-30T22:24:03.532Z,96610.16
2022-11-30T22:26:29.904Z,96606.00
2022-11-30T22:28:57.804Z,96608.75
2022-11-30T22:31:26.018Z,96609.16
2022-11-30T22:33:52.904Z,96599.97
2022-11-30T22:36:20.504Z,96601.47
2022-11-30T22:38:47.448Z,96598.88
2022-11-30T22:41:15.307Z,96599.44
2022-11-30T22:43:42.354Z,96593.28
2022-11-30T22:46:19.625Z,96589.41
2022-11-30T22:48:46.626Z,96590.09
2022-11-30T22:51:17.074Z,96587.91
2022-11-30T22:53:43.832Z,96587.78
2022-11-30T22:56:12.248Z,96588.56
2022-11-30T22:58:39.112Z,96584.47
2022-11-30T23:01:10.521Z,96593.53
2022-11-30T23:03:37.170Z,96589.00
2022-11-30T23:06:03.734Z,96585.41
2022-11-30T23:08:30.438Z,96582.41
2022-11-30T23:10:57.626Z,96580.22
2022-11-30T23:13:24.532Z,96580.50
2022-11-30T23:15:51.085Z,96576.50
2022-11-30T23:18:17.855Z,96575.69
2022-11-30T23:20:44.222Z,96582.13
2022-11-30T23:23:10.594Z,96575.00
2022-11-30T23:25:36.981Z,96579.09
2022-11-30T23:28:03.345Z,96583.94
2022-11-30T23:30:29.718Z,96584.34
2022-11-30T23:32:56.446Z,96583.66
2022-11-30T23:35:24.019Z,96578.16
2022-11-30T23:37:51.547Z,96591.06
2022-11-30T23:40:18.378Z,96588.59
2022-11-30T23:42:44.798Z,96586.00
2022-11-30T23:45:11.724Z,96593.53
2022-11-30T23:47:38.391Z,96593.41
2022-11-30T23:50:05.541Z,96585.19
2022-11-30T23:52:31.979Z,96589.44
2022-11-30T23:54:58.400Z,96585.75
2022-11-30T23:57:24.782Z,96585.59
2022-11-30T23:59:51.187Z,96584.22
